Time;durP1;ratioP1;P1;durP2;ratioP2;P2;SDS_P1;SDS_P2;PMS_P1;PMS_P2;Temp;Humidity;BMP_temperature;BMP_pressure;BME280_temperature;BME280_humidity;BME280_pressure;Samples;Min_cycle;Max_cycle;Signal;HPM_P1;HPM_P2
2022/09/29 00:02:24;;;;;;;0.20;0.20;;;7.70;99.90;;;;;;5072112;28;20649;-80
2022/09/29 00:04:52;;;;;;;0.27;0.27;;;7.60;99.90;;;;;;5078684;28;20193;-81
2022/09/29 00:07:17;;;;;;;0.30;0.30;;;7.50;99.90;;;;;;5088735;28;20605;-80
2022/09/29 00:09:43;;;;;;;0.23;0.23;;;7.60;99.90;;;;;;5088450;28;20523;-80
2022/09/29 00:12:08;;;;;;;0.20;0.20;;;7.50;99.90;;;;;;5089792;28;20181;-81
2022/09/29 00:14:34;;;;;;;0.20;0.20;;;7.50;99.90;;;;;;5090653;28;20237;-81
2022/09/29 00:16:59;;;;;;;0.20;0.20;;;7.40;99.90;;;;;;5068478;28;20323;-81
2022/09/29 00:19:27;;;;;;;0.30;0.30;;;7.40;99.90;;;;;;5075526;28;20866;-81
2022/09/29 00:21:53;;;;;;;0.30;0.30;;;7.50;99.90;;;;;;5097342;28;20173;-81
2022/09/29 00:24:18;;;;;;;0.20;0.20;;;7.50;99.90;;;;;;5089516;28;20504;-81
2022/09/29 00:26:45;;;;;;;0.30;0.30;;;7.30;99.90;;;;;;5094683;28;20197;-81
2022/09/29 00:29:11;;;;;;;0.30;0.30;;;7.30;99.90;;;;;;5095785;28;20787;-80
2022/09/29 00:31:36;;;;;;;0.30;0.30;;;7.30;99.90;;;;;;5090675;28;20517;-81
2022/09/29 00:34:02;;;;;;;0.20;0.20;;;7.30;99.90;;;;;;5094823;28;20239;-81
2022/09/29 00:36:28;;;;;;;0.20;0.20;;;7.20;99.90;;;;;;5086894;28;20189;-80
2022/09/29 00:38:55;;;;;;;0.20;0.20;;;7.30;99.90;;;;;;5085822;28;20785;-80
2022/09/29 00:41:23;;;;;;;0.30;0.30;;;7.30;99.90;;;;;;5071541;28;20443;-81
2022/09/29 00:43:59;;;;;;;0.20;0.20;;;7.20;99.90;;;;;;5086653;28;20450;-80
2022/09/29 00:46:37;;;;;;;0.20;0.20;;;7.30;99.90;;;;;;5084449;28;20567;-82
2022/09/29 00:49:11;;;;;;;0.20;0.20;;;7.30;99.90;;;;;;5073865;28;20439;-80
2022/09/29 00:51:38;;;;;;;0.30;0.30;;;7.20;99.90;;;;;;5090910;28;20445;-81
2022/09/29 00:54:06;;;;;;;0.20;0.20;;;7.20;99.90;;;;;;5085901;28;20798;-81
2022/09/29 00:56:33;;;;;;;0.30;0.30;;;7.30;99.90;;;;;;5092728;28;20427;-80
2022/09/29 00:59:04;;;;;;;0.30;0.30;;;7.30;99.90;;;;;;5086687;28;20440;-80
2022/09/29 01:01:31;;;;;;;0.30;0.30;;;7.30;99.90;;;;;;5086144;28;20504;-81
2022/09/29 01:04:07;;;;;;;0.20;0.20;;;7.40;99.90;;;;;;5091235;28;20438;-81
2022/09/29 01:06:48;;;;;;;0.20;0.20;;;7.40;99.90;;;;;;5085455;28;20938;-81
2022/09/29 01:09:18;;;;;;;0.30;0.30;;;7.40;99.90;;;;;;5069388;28;20496;-81
2022/09/29 01:11:44;;;;;;;0.30;0.30;;;7.50;99.90;;;;;;5072491;28;20981;-81
2022/09/29 01:14:10;;;;;;;0.30;0.30;;;7.40;99.90;;;;;;5094910;28;20462;-80
2022/09/29 01:16:38;;;;;;;0.20;0.20;;;7.40;99.90;;;;;;5083561;28;20435;-81
2022/09/29 01:19:12;;;;;;;0.30;0.30;;;7.50;99.90;;;;;;5094508;28;20499;-81
2022/09/29 01:21:38;;;;;;;0.30;0.30;;;7.40;99.90;;;;;;5091580;28;20446;-80
2022/09/29 01:24:34;;;;;;;0.30;0.30;;;7.50;99.90;;;;;;5070962;28;20444;-81
2022/09/29 01:27:02;;;;;;;0.23;0.23;;;7.40;99.90;;;;;;5088254;28;20648;-80
2022/09/29 01:29:57;;;;;;;0.30;0.30;;;7.40;99.90;;;;;;5070390;28;20787;-79
2022/09/29 01:32:42;;;;;;;0.20;0.20;;;7.40;99.90;;;;;;5088178;28;20447;-80
2022/09/29 01:35:31;;;;;;;0.20;0.20;;;7.50;99.90;;;;;;5070326;28;20438;-80
2022/09/29 01:38:12;;;;;;;0.30;0.30;;;7.50;99.90;;;;;;5067262;28;20443;-80
2022/09/29 01:40:43;;;;;;;0.30;0.30;;;7.50;99.90;;;;;;5081987;28;20884;-81
2022/09/29 01:43:19;;;;;;;0.30;0.30;;;7.50;99.90;;;;;;5089132;28;20442;-80
2022/09/29 01:46:07;;;;;;;0.30;0.30;;;7.50;99.90;;;;;;5089137;28;20446;-80
2022/09/29 01:48:37;;;;;;;0.20;0.20;;;7.50;99.90;;;;;;5093633;28;21012;-81
2022/09/29 01:51:10;;;;;;;0.30;0.30;;;7.60;99.90;;;;;;5091368;28;20442;-80
2022/09/29 01:53:47;;;;;;;0.30;0.30;;;7.50;99.90;;;;;;5086839;28;20550;-80
2022/09/29 01:56:20;;;;;;;0.30;0.30;;;7.60;99.90;;;;;;5082347;28;20530;-80
2022/09/29 01:59:01;;;;;;;0.20;0.20;;;7.60;99.90;;;;;;5068978;28;20443;-81
2022/09/29 02:01:32;;;;;;;0.30;0.30;;;7.60;99.90;;;;;;5094670;28;20454;-81
2022/09/29 02:04:04;;;;;;;0.30;0.30;;;7.60;99.90;;;;;;5066436;28;20434;-81
2022/09/29 02:06:36;;;;;;;0.30;0.30;;;7.60;99.90;;;;;;5084880;28;20503;-81
2022/09/29 02:09:07;;;;;;;0.30;0.30;;;7.50;99.90;;;;;;5065347;28;20439;-81
2022/09/29 02:11:37;;;;;;;0.20;0.20;;;7.40;99.90;;;;;;5091290;28;20449;-81
2022/09/29 02:14:11;;;;;;;0.27;0.27;;;7.40;99.90;;;;;;5089474;28;21057;-81
2022/09/29 02:16:43;;;;;;;0.30;0.30;;;7.30;99.90;;;;;;5081888;28;20448;-81
2022/09/29 02:19:19;;;;;;;0.30;0.30;;;7.20;99.90;;;;;;5084511;28;20439;-80
2022/09/29 02:21:45;;;;;;;0.30;0.30;;;7.20;99.90;;;;;;5084534;28;20451;-80
2022/09/29 02:24:11;;;;;;;0.23;0.23;;;7.20;99.90;;;;;;5084621;28;20456;-81
2022/09/29 02:26:37;;;;;;;0.20;0.20;;;7.10;99.90;;;;;;5081520;28;20185;-81
2022/09/29 02:29:05;;;;;;;0.30;0.30;;;7.10;99.90;;;;;;5085569;28;20910;-81
2022/09/29 02:31:32;;;;;;;0.30;0.30;;;7.10;99.90;;;;;;5090364;28;20454;-81
2022/09/29 02:33:59;;;;;;;0.30;0.30;;;7.20;99.90;;;;;;5064600;28;20550;-81
2022/09/29 02:36:39;;;;;;;0.30;0.30;;;7.30;99.90;;;;;;5088529;28;20523;-82
2022/09/29 02:39:21;;;;;;;0.30;0.30;;;7.30;99.90;;;;;;5087798;28;20439;-81
2022/09/29 02:42:06;;;;;;;0.30;0.30;;;7.40;99.90;;;;;;5088728;28;20817;-80
2022/09/29 02:44:31;;;;;;;0.20;0.20;;;7.40;99.90;;;;;;5065929;28;20448;-81
2022/09/29 02:47:22;;;;;;;0.23;0.23;;;7.40;99.90;;;;;;5085697;28;20453;-80
2022/09/29 02:49:48;;;;;;;0.30;0.30;;;7.50;99.90;;;;;;5075340;28;20282;-80
2022/09/29 02:52:41;;;;;;;0.20;0.20;;;7.60;99.90;;;;;;5068923;28;20526;-80
2022/09/29 02:55:17;;;;;;;0.20;0.20;;;7.60;99.90;;;;;;5060379;28;20941;-81
2022/09/29 02:57:57;;;;;;;0.30;0.30;;;7.60;99.90;;;;;;5090608;28;20444;-81
2022/09/29 03:00:25;;;;;;;0.20;0.20;;;7.60;99.90;;;;;;5087092;28;20510;-82
2022/09/29 03:02:50;;;;;;;0.30;0.30;;;7.60;99.90;;;;;;5084675;28;20454;-81
2022/09/29 03:05:19;;;;;;;0.20;0.20;;;7.60;99.90;;;;;;5071043;28;20531;-82
2022/09/29 03:07:45;;;;;;;0.20;0.20;;;7.60;99.90;;;;;;5084269;28;21380;-81
2022/09/29 03:10:13;;;;;;;0.20;0.20;;;7.60;99.90;;;;;;5080688;28;21003;-81
2022/09/29 03:12:39;;;;;;;0.20;0.20;;;7.60;99.90;;;;;;5085608;28;20269;-82
2022/09/29 03:15:06;;;;;;;0.20;0.20;;;7.60;99.90;;;;;;5082592;28;20561;-81
2022/09/29 03:17:32;;;;;;;0.20;0.20;;;7.50;99.90;;;;;;5084062;28;20224;-80
2022/09/29 03:19:57;;;;;;;0.30;0.30;;;7.50;99.90;;;;;;5087122;28;20522;-81
2022/09/29 03:22:23;;;;;;;0.27;0.27;;;7.50;99.90;;;;;;5092723;28;20181;-81
2022/09/29 03:24:49;;;;;;;0.30;0.30;;;7.50;99.90;;;;;;5064046;28;20698;-81
2022/09/29 03:27:15;;;;;;;0.30;0.30;;;7.50;99.90;;;;;;5086803;28;20439;-81
2022/09/29 03:29:41;;;;;;;0.20;0.20;;;7.50;99.90;;;;;;5063193;28;20211;-81
2022/09/29 03:32:06;;;;;;;0.30;0.30;;;7.50;99.90;;;;;;5068236;28;20892;-80
2022/09/29 03:34:32;;;;;;;0.20;0.20;;;7.50;99.90;;;;;;5086384;28;20205;-81
2022/09/29 03:36:58;;;;;;;0.20;0.20;;;7.50;99.90;;;;;;5086891;28;20191;-82
2022/09/29 03:39:24;;;;;;;0.30;0.30;;;7.50;99.90;;;;;;5086959;28;20479;-81
2022/09/29 03:41:50;;;;;;;0.20;0.20;;;7.60;99.90;;;;;;5083858;28;20649;-81
2022/09/29 03:44:16;;;;;;;0.20;0.20;;;7.60;99.90;;;;;;5084924;28;20445;-80
2022/09/29 03:46:42;;;;;;;0.20;0.20;;;7.50;99.90;;;;;;5082574;28;20185;-80
2022/09/29 03:49:10;;;;;;;0.20;0.20;;;7.60;99.90;;;;;;5085381;28;20245;-81
2022/09/29 03:51:37;;;;;;;0.20;0.20;;;7.60;99.90;;;;;;5096572;28;20984;-80
2022/09/29 03:54:02;;;;;;;0.27;0.27;;;7.60;99.90;;;;;;5082702;28;20771;-81
2022/09/29 03:56:28;;;;;;;0.20;0.20;;;7.60;99.90;;;;;;5062394;28;20508;-81
2022/09/29 03:58:53;;;;;;;0.30;0.30;;;7.60;99.90;;;;;;5067801;28;20610;-81
2022/09/29 04:01:19;;;;;;;0.30;0.30;;;7.60;99.90;;;;;;5083570;28;20221;-82
2022/09/29 04:03:45;;;;;;;0.30;0.30;;;7.60;99.90;;;;;;5068094;28;20201;-80
2022/09/29 04:06:11;;;;;;;0.20;0.20;;;7.60;99.90;;;;;;5062758;28;20674;-82
2022/09/29 04:08:37;;;;;;;0.20;0.20;;;7.60;99.90;;;;;;5070917;28;20492;-82
2022/09/29 04:11:03;;;;;;;0.30;0.30;;;7.60;99.90;;;;;;5083971;28;20281;-81
2022/09/29 04:13:28;;;;;;;0.20;0.20;;;7.60;99.90;;;;;;5063429;28;20536;-81
2022/09/29 04:15:59;;;;;;;0.30;0.30;;;7.60;99.90;;;;;;5067445;28;20193;-81
2022/09/29 04:18:24;;;;;;;0.20;0.20;;;7.60;99.90;;;;;;5083471;28;20657;-82
2022/09/29 04:20:50;;;;;;;0.30;0.30;;;7.50;99.90;;;;;;5091540;28;20493;-80
2022/09/29 04:23:16;;;;;;;0.23;0.23;;;7.50;99.90;;;;;;5088506;28;20186;-82
2022/09/29 04:25:44;;;;;;;0.30;0.30;;;7.50;99.90;;;;;;5087306;28;20450;-80
2022/09/29 04:28:10;;;;;;;0.30;0.30;;;7.50;99.90;;;;;;5079895;28;20185;-81
2022/09/29 04:30:36;;;;;;;0.27;0.27;;;7.60;99.90;;;;;;5089669;28;20511;-83
2022/09/29 04:33:01;;;;;;;0.20;0.20;;;7.50;99.90;;;;;;5089172;28;20184;-82
2022/09/29 04:35:27;;;;;;;0.20;0.20;;;7.50;99.90;;;;;;5089047;28;20188;-82
2022/09/29 04:37:56;;;;;;;0.30;0.30;;;7.60;99.90;;;;;;5086720;28;20254;-82
2022/09/29 04:40:23;;;;;;;0.27;0.27;;;7.50;99.90;;;;;;5070572;28;20308;-82
2022/09/29 04:42:48;;;;;;;0.20;0.20;;;7.50;99.90;;;;;;5083016;28;20447;-82
2022/09/29 04:45:14;;;;;;;0.30;0.30;;;7.50;99.90;;;;;;5071165;28;20455;-79
2022/09/29 04:47:39;;;;;;;0.30;0.30;;;7.50;99.90;;;;;;5087396;28;20193;-80
2022/09/29 04:50:08;;;;;;;0.30;0.30;;;7.50;99.90;;;;;;5090884;28;20931;-80
2022/09/29 04:52:34;;;;;;;0.30;0.30;;;7.50;99.90;;;;;;5064502;28;20692;-80
2022/09/29 04:55:00;;;;;;;0.23;0.23;;;7.50;99.90;;;;;;5062696;28;20488;-81
2022/09/29 04:57:25;;;;;;;0.30;0.30;;;7.50;99.90;;;;;;5089008;28;20439;-81
2022/09/29 04:59:51;;;;;;;0.20;0.20;;;7.40;99.90;;;;;;5089338;28;20578;-81
2022/09/29 05:02:18;;;;;;;0.27;0.27;;;7.50;99.90;;;;;;5077640;28;20195;-80
2022/09/29 05:04:44;;;;;;;0.30;0.30;;;7.50;99.90;;;;;;5077085;28;20193;-81
2022/09/29 05:07:10;;;;;;;0.30;0.30;;;7.40;99.90;;;;;;5064727;28;20439;-80
2022/09/29 05:09:35;;;;;;;0.30;0.30;;;7.40;99.90;;;;;;5087635;28;20504;-81
2022/09/29 05:12:01;;;;;;;0.30;0.30;;;7.40;99.90;;;;;;5093732;28;20217;-81
2022/09/29 05:14:27;;;;;;;0.20;0.20;;;7.40;99.90;;;;;;5094994;28;20228;-80
2022/09/29 05:16:56;;;;;;;0.30;0.30;;;7.50;99.90;;;;;;5069673;28;20193;-81
2022/09/29 05:19:21;;;;;;;0.20;0.20;;;7.40;99.90;;;;;;5086457;28;20209;-80
2022/09/29 05:21:47;;;;;;;0.20;0.20;;;7.50;99.90;;;;;;5072325;28;20451;-81
2022/09/29 05:24:13;;;;;;;0.20;0.20;;;7.50;99.90;;;;;;5068537;28;20195;-80
2022/09/29 05:26:39;;;;;;;0.30;0.30;;;7.50;99.90;;;;;;5061402;28;21956;-81
2022/09/29 05:29:04;;;;;;;0.20;0.20;;;7.50;99.90;;;;;;5065927;28;20282;-80
2022/09/29 05:31:30;;;;;;;0.30;0.30;;;7.50;99.90;;;;;;5072761;28;20262;-81
2022/09/29 05:33:56;;;;;;;0.30;0.30;;;7.50;99.90;;;;;;5083189;28;20191;-81
2022/09/29 05:36:22;;;;;;;0.30;0.30;;;7.50;99.90;;;;;;5087562;28;20193;-79
2022/09/29 05:38:47;;;;;;;0.30;0.30;;;7.50;99.90;;;;;;5060114;28;20936;-81
2022/09/29 05:41:16;;;;;;;0.20;0.20;;;7.50;99.90;;;;;;5090730;28;20296;-79
2022/09/29 05:43:41;;;;;;;0.27;0.27;;;7.50;99.90;;;;;;5085457;28;20208;-80
2022/09/29 05:46:09;;;;;;;0.20;0.20;;;7.60;99.90;;;;;;5069402;28;20470;-80
2022/09/29 05:48:35;;;;;;;0.30;0.30;;;7.60;99.90;;;;;;5074851;28;20185;-80
2022/09/29 05:51:10;;;;;;;0.30;0.30;;;7.60;99.90;;;;;;5087808;28;20450;-79
2022/09/29 05:53:35;;;;;;;0.30;0.30;;;7.60;99.90;;;;;;5068945;28;20340;-80
2022/09/29 05:56:09;;;;;;;0.30;0.30;;;7.60;99.90;;;;;;5071192;28;20544;-79
2022/09/29 05:58:36;;;;;;;0.30;0.30;;;7.60;99.90;;;;;;5069476;28;20238;-80
2022/09/29 06:01:06;;;;;;;0.30;0.30;;;7.60;99.90;;;;;;5070392;28;20498;-80
2022/09/29 06:03:34;;;;;;;0.30;0.30;;;7.60;99.90;;;;;;5100982;28;20514;-78
2022/09/29 06:06:04;;;;;;;0.30;0.30;;;7.60;99.90;;;;;;5088305;28;20580;-79
2022/09/29 06:08:30;;;;;;;0.30;0.30;;;7.70;99.90;;;;;;5090011;28;20419;-79
2022/09/29 06:11:05;;;;;;;0.30;0.30;;;7.70;99.90;;;;;;5101051;28;20785;-80
2022/09/29 06:13:31;;;;;;;0.20;0.20;;;7.70;99.90;;;;;;5097072;28;20229;-84
2022/09/29 06:15:58;;;;;;;0.30;0.30;;;7.80;99.90;;;;;;5066974;28;20440;-79
2022/09/29 06:18:24;;;;;;;0.30;0.30;;;7.80;99.90;;;;;;5095641;28;20793;-81
2022/09/29 06:20:49;;;;;;;0.30;0.30;;;7.80;99.90;;;;;;5073256;28;20508;-81
2022/09/29 06:23:15;;;;;;;0.20;0.20;;;7.80;99.90;;;;;;5091018;28;20195;-79
2022/09/29 06:25:40;;;;;;;0.27;0.27;;;7.80;99.90;;;;;;5088664;28;20771;-80
2022/09/29 06:28:06;;;;;;;0.30;0.30;;;7.80;99.90;;;;;;5090045;28;20546;-81
2022/09/29 06:30:31;;;;;;;0.20;0.20;;;7.90;99.90;;;;;;5066818;28;20234;-79
2022/09/29 06:32:57;;;;;;;0.30;0.30;;;7.90;99.90;;;;;;5098143;28;20177;-81
2022/09/29 06:38:06;;;;;;;0.20;0.20;;;8.00;99.90;;;;;;5085521;28;20188;-81
2022/09/29 06:40:32;;;;;;;0.20;0.20;;;8.00;99.90;;;;;;5070629;28;20864;-81
2022/09/29 06:42:57;;;;;;;0.20;0.20;;;8.00;99.90;;;;;;5074487;28;20185;-82
2022/09/29 06:45:23;;;;;;;0.20;0.20;;;8.00;99.90;;;;;;5076772;28;20198;-81
2022/09/29 06:47:48;;;;;;;0.30;0.30;;;8.00;99.90;;;;;;5051812;28;20222;-81
2022/09/29 06:50:14;;;;;;;0.20;0.20;;;8.00;99.90;;;;;;5087592;28;20930;-81
2022/09/29 06:52:39;;;;;;;0.20;0.20;;;8.00;99.90;;;;;;5087108;28;20185;-80
2022/09/29 06:55:05;;;;;;;0.20;0.20;;;8.10;99.90;;;;;;5068810;28;20558;-80
2022/09/29 06:57:31;;;;;;;0.30;0.30;;;8.10;99.90;;;;;;5077161;28;20193;-80
2022/09/29 06:59:57;;;;;;;0.20;0.20;;;8.10;99.90;;;;;;5068404;28;20485;-81
2022/09/29 07:02:22;;;;;;;0.23;0.23;;;8.10;99.90;;;;;;5085992;28;20190;-80
2022/09/29 07:04:48;;;;;;;0.20;0.20;;;8.10;99.90;;;;;;5085732;28;20189;-80
2022/09/29 07:07:14;;;;;;;0.23;0.23;;;8.20;99.90;;;;;;5069081;28;20173;-80
2022/09/29 07:09:41;;;;;;;0.20;0.20;;;8.20;99.90;;;;;;5085589;28;20569;-80
2022/09/29 07:12:07;;;;;;;0.30;0.30;;;8.20;99.90;;;;;;5078048;28;20553;-81
2022/09/29 07:14:32;;;;;;;0.20;0.20;;;8.20;99.90;;;;;;5088204;28;20561;-80
2022/09/29 07:16:59;;;;;;;0.30;0.30;;;8.30;99.90;;;;;;5086394;28;20430;-81
2022/09/29 07:19:25;;;;;;;0.20;0.20;;;8.30;99.90;;;;;;5085047;28;20285;-80
2022/09/29 07:21:51;;;;;;;0.20;0.20;;;8.30;99.90;;;;;;5051622;28;20921;-81
2022/09/29 07:24:16;;;;;;;0.20;0.20;;;8.40;99.90;;;;;;5060847;28;20196;-80
2022/09/29 07:26:42;;;;;;;0.20;0.20;;;8.30;99.90;;;;;;5067280;28;20807;-80
2022/09/29 07:29:08;;;;;;;0.20;0.20;;;8.40;99.90;;;;;;5086594;28;20200;-79
2022/09/29 07:31:34;;;;;;;0.20;0.20;;;8.40;99.90;;;;;;5071904;28;20446;-80
2022/09/29 07:33:59;;;;;;;0.20;0.20;;;8.40;99.90;;;;;;5095286;28;20449;-80
2022/09/29 07:36:25;;;;;;;0.20;0.20;;;8.50;99.90;;;;;;5083308;28;20199;-78
2022/09/29 07:38:51;;;;;;;0.20;0.20;;;8.50;99.90;;;;;;5088853;28;20855;-80
2022/09/29 07:41:19;;;;;;;0.20;0.20;;;8.50;99.90;;;;;;5088912;28;20595;-81
2022/09/29 07:43:45;;;;;;;0.20;0.20;;;8.60;99.90;;;;;;5088629;28;20444;-80
2022/09/29 07:46:11;;;;;;;0.20;0.20;;;8.60;99.90;;;;;;5076326;28;20458;-80
2022/09/29 07:48:37;;;;;;;0.20;0.20;;;8.60;99.90;;;;;;5085720;28;20272;-80
2022/09/29 07:51:09;;;;;;;0.20;0.20;;;8.70;99.90;;;;;;5084131;28;20182;-81
2022/09/29 07:53:35;;;;;;;0.20;0.20;;;8.70;99.90;;;;;;5087488;28;20572;-80
2022/09/29 07:56:06;;;;;;;0.20;0.20;;;8.70;99.90;;;;;;5089843;28;20454;-81
2022/09/29 07:58:33;;;;;;;0.20;0.20;;;8.70;99.90;;;;;;5070752;28;20428;-80
2022/09/29 08:01:00;;;;;;;0.20;0.20;;;8.70;99.90;;;;;;5090816;28;20512;-80
2022/09/29 08:03:26;;;;;;;0.20;0.20;;;8.80;99.90;;;;;;5089450;28;20434;-81
2022/09/29 08:05:52;;;;;;;0.20;0.20;;;8.80;99.90;;;;;;5087906;28;20453;-80
2022/09/29 08:08:17;;;;;;;0.20;0.20;;;8.80;99.90;;;;;;5081431;28;20807;-80
2022/09/29 08:10:43;;;;;;;0.20;0.20;;;8.80;99.90;;;;;;5070511;28;20450;-80
2022/09/29 08:13:08;;;;;;;0.20;0.20;;;8.80;99.90;;;;;;5086852;28;20300;-80
2022/09/29 08:15:34;;;;;;;0.20;0.20;;;8.90;99.90;;;;;;5089623;28;20197;-81
2022/09/29 08:18:00;;;;;;;0.20;0.20;;;8.90;99.90;;;;;;5074529;28;20238;-80
2022/09/29 08:20:25;;;;;;;0.20;0.20;;;8.90;99.90;;;;;;5092334;28;20239;-81
2022/09/29 08:22:52;;;;;;;0.20;0.20;;;8.90;99.90;;;;;;5095411;28;20232;-80
2022/09/29 08:25:18;;;;;;;0.20;0.20;;;8.90;99.90;;;;;;5095029;28;20697;-81
2022/09/29 08:27:44;;;;;;;0.20;0.20;;;8.90;99.90;;;;;;5091977;28;20446;-81
2022/09/29 08:30:10;;;;;;;0.30;0.30;;;8.90;99.90;;;;;;5091132;28;20184;-80
2022/09/29 08:32:37;;;;;;;0.20;0.20;;;8.90;99.90;;;;;;5069044;28;20439;-81
2022/09/29 08:35:03;;;;;;;0.20;0.20;;;8.90;99.90;;;;;;5097600;28;20450;-81
2022/09/29 08:37:30;;;;;;;0.20;0.20;;;9.00;99.90;;;;;;5091945;28;20500;-78
2022/09/29 08:39:55;;;;;;;0.20;0.20;;;9.00;99.90;;;;;;5072529;28;20478;-81
2022/09/29 08:42:47;;;;;;;0.20;0.20;;;9.00;99.90;;;;;;5074824;28;20450;-80
2022/09/29 08:45:35;;;;;;;0.20;0.20;;;9.00;99.90;;;;;;5074846;28;20186;-80
2022/09/29 08:48:15;;;;;;;0.20;0.20;;;9.00;99.90;;;;;;5079907;28;20450;-85
2022/09/29 08:50:45;;;;;;;0.20;0.20;;;9.00;99.90;;;;;;5081714;28;20470;-87
2022/09/29 08:53:15;;;;;;;0.20;0.20;;;9.00;99.90;;;;;;5100627;28;20529;-85
2022/09/29 08:55:54;;;;;;;0.27;0.27;;;8.90;99.90;;;;;;5110789;28;20442;-85
2022/09/29 08:58:20;;;;;;;0.20;0.20;;;9.00;99.90;;;;;;5086496;28;20893;-86
2022/09/29 09:01:02;;;;;;;0.20;0.20;;;9.00;99.90;;;;;;5101788;28;21072;-86
2022/09/29 09:03:44;;;;;;;0.20;0.20;;;9.10;99.90;;;;;;5081932;28;20259;-84
2022/09/29 09:06:24;;;;;;;0.20;0.20;;;9.10;99.90;;;;;;5091348;28;20447;-86
2022/09/29 09:09:01;;;;;;;0.20;0.20;;;9.10;99.90;;;;;;5087990;28;20523;-88
2022/09/29 09:11:42;;;;;;;0.20;0.20;;;9.20;99.90;;;;;;5093578;28;20509;-87
2022/09/29 09:14:37;;;;;;;0.20;0.20;;;9.10;99.90;;;;;;5076371;28;20486;-88
2022/09/29 09:17:18;;;;;;;0.20;0.20;;;9.10;99.90;;;;;;5081597;28;20442;-88
2022/09/29 09:19:56;;;;;;;0.20;0.20;;;9.10;99.90;;;;;;5090906;28;20471;-86
2022/09/29 09:22:23;;;;;;;0.20;0.20;;;9.00;99.90;;;;;;5089758;28;20504;-89
2022/09/29 09:25:12;;;;;;;0.20;0.20;;;9.00;99.90;;;;;;5092506;28;20430;-87
2022/09/29 09:27:43;;;;;;;0.20;0.20;;;9.00;99.90;;;;;;5081083;28;20493;-88
2022/09/29 09:30:18;;;;;;;0.20;0.20;;;9.00;99.90;;;;;;5074122;28;20428;-88
2022/09/29 09:32:58;;;;;;;0.30;0.30;;;9.00;99.90;;;;;;5097755;28;20604;-88
2022/09/29 09:35:36;;;;;;;0.20;0.20;;;9.00;99.90;;;;;;5098662;28;20450;-88
2022/09/29 09:38:11;;;;;;;0.20;0.20;;;9.00;99.90;;;;;;5072530;28;21013;-85
2022/09/29 09:40:43;;;;;;;0.20;0.20;;;9.10;99.90;;;;;;5091736;28;20492;-88
2022/09/29 09:43:32;;;;;;;0.20;0.20;;;9.10;99.90;;;;;;5078332;28;20435;-88
2022/09/29 09:46:21;;;;;;;0.20;0.20;;;9.00;99.90;;;;;;5057376;28;20558;-88
2022/09/29 09:49:21;;;;;;;0.20;0.20;;;9.10;99.90;;;;;;5053011;28;20431;-87
2022/09/29 09:51:58;;;;;;;0.20;0.20;;;9.10;99.90;;;;;;5074545;28;20874;-87
2022/09/29 09:54:46;;;;;;;0.30;0.30;;;9.20;99.90;;;;;;5090231;28;20441;-86
2022/09/29 09:57:43;;;;;;;0.20;0.20;;;9.20;99.90;;;;;;5072689;28;20443;-88
2022/09/29 10:00:14;;;;;;;0.20;0.20;;;9.20;99.90;;;;;;5069601;28;21021;-88
2022/09/29 10:02:49;;;;;;;0.20;0.20;;;9.20;99.90;;;;;;5104608;28;20445;-87
2022/09/29 10:05:21;;;;;;;0.20;0.20;;;9.30;99.90;;;;;;5086607;28;20445;-86
2022/09/29 10:07:48;;;;;;;0.20;0.20;;;9.20;99.90;;;;;;5089800;28;20914;-87
2022/09/29 10:10:22;;;;;;;0.20;0.20;;;9.20;99.90;;;;;;5090392;28;20527;-87
2022/09/29 10:13:05;;;;;;;0.20;0.20;;;9.20;99.90;;;;;;5090654;28;20423;-87
2022/09/29 10:15:43;;;;;;;0.20;0.20;;;9.20;99.90;;;;;;5084982;28;20534;-87
2022/09/29 10:18:19;;;;;;;0.20;0.20;;;9.20;99.90;;;;;;5090118;28;20436;-88
2022/09/29 10:20:45;;;;;;;0.20;0.20;;;9.30;99.90;;;;;;5092174;28;20480;-87
2022/09/29 10:23:30;;;;;;;0.20;0.20;;;9.20;99.90;;;;;;5092246;28;20443;-87
2022/09/29 10:26:01;;;;;;;0.20;0.20;;;9.20;99.90;;;;;;5073126;28;20679;-87
2022/09/29 10:28:36;;;;;;;0.20;0.20;;;9.20;99.90;;;;;;5091402;28;20434;-87
2022/09/29 10:31:01;;;;;;;0.20;0.20;;;9.20;99.90;;;;;;5071914;28;20446;-88
2022/09/29 10:33:27;;;;;;;0.20;0.20;;;9.20;99.90;;;;;;5061894;28;20470;-86
2022/09/29 10:36:06;;;;;;;0.20;0.20;;;9.30;99.90;;;;;;5095780;28;20201;-87
2022/09/29 10:38:32;;;;;;;0.30;0.30;;;9.30;99.90;;;;;;5092912;28;20223;-88
2022/09/29 10:40:58;;;;;;;0.20;0.20;;;9.30;99.90;;;;;;5096920;28;20481;-87
2022/09/29 10:43:30;;;;;;;0.20;0.20;;;9.30;99.90;;;;;;5105612;28;20173;-84
2022/09/29 10:45:57;;;;;;;0.20;0.20;;;9.30;99.90;;;;;;5090144;28;20200;-84
2022/09/29 10:48:24;;;;;;;0.20;0.20;;;9.30;99.90;;;;;;5071280;28;20786;-85
2022/09/29 10:51:00;;;;;;;0.20;0.20;;;9.30;99.90;;;;;;5071618;28;20447;-87
2022/09/29 10:53:40;;;;;;;0.20;0.20;;;9.30;99.90;;;;;;5088030;28;20479;-89
2022/09/29 10:56:17;;;;;;;0.20;0.20;;;9.40;99.90;;;;;;5087309;28;22105;-87
2022/09/29 10:58:54;;;;;;;0.20;0.20;;;9.40;99.90;;;;;;5091702;28;20448;-89
2022/09/29 11:01:21;;;;;;;0.20;0.20;;;9.30;99.90;;;;;;5091115;28;20475;-88
2022/09/29 11:03:51;;;;;;;0.17;0.17;;;9.40;99.90;;;;;;5071977;28;20938;-86
2022/09/29 11:06:25;;;;;;;0.20;0.20;;;9.30;99.90;;;;;;5085085;28;20458;-86
2022/09/29 11:09:24;;;;;;;0.20;0.20;;;9.40;99.90;;;;;;5068777;28;20434;-85
2022/09/29 11:11:55;;;;;;;0.20;0.20;;;9.30;99.90;;;;;;5072280;28;20455;-86
2022/09/29 11:14:36;;;;;;;0.20;0.20;;;9.40;99.90;;;;;;5088947;28;20471;-87
2022/09/29 11:17:25;;;;;;;0.20;0.20;;;9.30;99.90;;;;;;5073029;28;20514;-89
2022/09/29 11:19:53;;;;;;;0.20;0.20;;;9.30;99.90;;;;;;5086522;28;20511;-87
2022/09/29 11:22:34;;;;;;;0.20;0.20;;;9.40;99.90;;;;;;5091193;28;20448;-87
2022/09/29 11:25:18;;;;;;;0.20;0.20;;;9.40;99.90;;;;;;5106404;28;20465;-88
2022/09/29 11:27:52;;;;;;;0.20;0.20;;;9.40;99.90;;;;;;5073458;28;20962;-87
2022/09/29 11:30:23;;;;;;;0.20;0.20;;;9.50;99.90;;;;;;5080542;28;20469;-86
2022/09/29 11:33:08;;;;;;;0.20;0.20;;;9.50;99.90;;;;;;5116316;28;20406;-86
2022/09/29 11:36:05;;;;;;;0.20;0.20;;;9.50;99.90;;;;;;5094095;28;20477;-87
2022/09/29 11:38:45;;;;;;;0.20;0.20;;;9.60;99.90;;;;;;5077334;28;20419;-89
2022/09/29 11:41:38;;;;;;;0.20;0.20;;;9.50;99.90;;;;;;5095889;28;20759;-89
2022/09/29 11:44:33;;;;;;;0.20;0.20;;;9.50;99.90;;;;;;5065285;28;20474;-86
2022/09/29 11:47:18;;;;;;;0.20;0.20;;;9.50;99.90;;;;;;5090065;28;20451;-87
2022/09/29 11:50:05;;;;;;;0.20;0.20;;;9.50;99.90;;;;;;5097096;28;20454;-86
2022/09/29 11:53:06;;;;;;;0.20;0.20;;;9.50;99.90;;;;;;5080382;28;20911;-85
2022/09/29 11:55:59;;;;;;;0.13;0.13;;;9.50;99.90;;;;;;5107541;28;20498;-87
2022/09/29 11:58:47;;;;;;;0.20;0.20;;;9.40;99.90;;;;;;5104609;28;20485;-85
2022/09/29 12:01:29;;;;;;;0.20;0.20;;;9.40;99.90;;;;;;5074005;28;20521;-84
2022/09/29 12:04:14;;;;;;;0.20;0.20;;;9.40;99.90;;;;;;5067513;28;20435;-83
2022/09/29 12:07:22;;;;;;;0.20;0.20;;;9.30;99.90;;;;;;5102671;28;20989;-84
2022/09/29 12:10:11;;;;;;;0.20;0.20;;;9.30;99.90;;;;;;5073904;28;20446;-85
2022/09/29 12:13:00;;;;;;;0.20;0.20;;;9.30;99.90;;;;;;5092225;28;20439;-84
2022/09/29 12:15:36;;;;;;;0.20;0.20;;;9.30;99.90;;;;;;5088738;28;20463;-85
2022/09/29 12:18:15;;;;;;;0.20;0.20;;;9.30;99.90;;;;;;5087522;28;20454;-84
2022/09/29 12:20:44;;;;;;;0.20;0.20;;;9.30;99.90;;;;;;5092330;28;20486;-88
2022/09/29 12:23:12;;;;;;;0.20;0.20;;;9.30;99.90;;;;;;5075051;28;20482;-85
2022/09/29 12:25:54;;;;;;;0.20;0.20;;;9.30;99.90;;;;;;5083293;28;20927;-83
2022/09/29 12:28:26;;;;;;;0.20;0.20;;;9.30;99.90;;;;;;5071846;28;21379;-84
2022/09/29 12:30:59;;;;;;;0.20;0.20;;;9.30;99.90;;;;;;5072272;28;20469;-84
2022/09/29 12:33:29;;;;;;;0.20;0.20;;;9.30;99.90;;;;;;5088800;28;20497;-84
2022/09/29 12:36:04;;;;;;;0.20;0.20;;;9.30;99.90;;;;;;5084239;28;20450;-83
2022/09/29 12:38:42;;;;;;;0.20;0.20;;;9.30;99.90;;;;;;5070113;28;20951;-83
2022/09/29 12:41:16;;;;;;;0.20;0.20;;;9.30;99.90;;;;;;5072259;28;20497;-84
2022/09/29 12:43:50;;;;;;;0.10;0.10;;;9.30;99.90;;;;;;5072975;28;20418;-85
2022/09/29 12:46:27;;;;;;;0.20;0.20;;;9.30;99.90;;;;;;5091014;28;20454;-83
2022/09/29 12:49:07;;;;;;;0.20;0.20;;;9.30;99.90;;;;;;5073040;28;20435;-82
2022/09/29 12:51:44;;;;;;;0.20;0.20;;;9.30;99.90;;;;;;5071094;28;20465;-83
2022/09/29 12:54:35;;;;;;;0.20;0.20;;;9.30;99.90;;;;;;5088059;28;21018;-82
2022/09/29 12:57:04;;;;;;;0.20;0.20;;;9.30;99.90;;;;;;5090679;28;20438;-82
2022/09/29 12:59:39;;;;;;;0.20;0.20;;;9.40;99.90;;;;;;5073597;28;21330;-83
2022/09/29 13:02:26;;;;;;;0.20;0.20;;;9.40;99.90;;;;;;5090017;28;20453;-81
2022/09/29 13:05:22;;;;;;;0.20;0.20;;;9.40;99.90;;;;;;5093139;28;20832;-82
2022/09/29 13:08:26;;;;;;;0.20;0.20;;;9.30;99.90;;;;;;5092023;28;20419;-82
2022/09/29 13:11:02;;;;;;;0.20;0.20;;;9.30;99.90;;;;;;5092508;28;20438;-82
2022/09/29 13:13:55;;;;;;;0.20;0.20;;;9.30;99.90;;;;;;5074359;28;20475;-82
2022/09/29 13:16:38;;;;;;;0.20;0.20;;;9.30;99.90;;;;;;5105702;28;21004;-84
2022/09/29 13:19:12;;;;;;;0.20;0.20;;;9.30;99.90;;;;;;5110578;28;20426;-85
2022/09/29 13:21:51;;;;;;;0.20;0.20;;;9.30;99.90;;;;;;5054755;28;20490;-88
2022/09/29 13:24:53;;;;;;;0.20;0.20;;;9.40;99.90;;;;;;5074240;28;20904;-85
2022/09/29 13:27:30;;;;;;;0.20;0.20;;;9.40;99.90;;;;;;5054568;28;20428;-85